createdAt,value
2018-10-06T00:00:54.945Z,0
2018-10-06T00:02:04.145Z,0
2018-10-06T00:03:13.826Z,0
2018-10-06T00:04:22.985Z,0
2018-10-06T00:05:32.160Z,0
2018-10-06T00:06:41.596Z,0
2018-10-06T00:07:50.538Z,0
2018-10-06T00:08:59.983Z,0
2018-10-06T00:10:09.138Z,0
2018-10-06T00:11:18.301Z,0
2018-10-06T00:12:27.738Z,0
2018-10-06T00:13:36.915Z,0
2018-10-06T00:14:46.687Z,0
2018-10-06T00:15:55.877Z,0
2018-10-06T00:17:05.568Z,0
2018-10-06T00:18:15.073Z,0
2018-10-06T00:19:24.596Z,0
2018-10-06T00:20:33.774Z,0
2018-10-06T00:21:43.461Z,0
2018-10-06T00:22:52.383Z,0
2018-10-06T00:24:02.362Z,0
2018-10-06T00:25:11.787Z,0
2018-10-06T00:26:20.965Z,0
2018-10-06T00:27:30.143Z,0
2018-10-06T00:28:40.093Z,0
2018-10-06T00:29:49.520Z,0
2018-10-06T00:30:59.489Z,0
2018-10-06T00:32:08.929Z,0
2018-10-06T00:33:18.365Z,0
2018-10-06T00:34:27.859Z,0
2018-10-06T00:35:37.556Z,0
2018-10-06T00:36:46.976Z,0
2018-10-06T00:37:56.731Z,0
2018-10-06T00:39:06.238Z,0
2018-10-06T00:40:15.677Z,0
2018-10-06T00:41:24.866Z,0
2018-10-06T00:42:34.322Z,0
2018-10-06T00:43:43.756Z,0
2018-10-06T00:44:53.696Z,0
2018-10-06T00:46:02.607Z,0
2018-10-06T00:47:12.991Z,0
2018-10-06T00:48:23.179Z,0
2018-10-06T00:49:32.103Z,0
2018-10-06T00:50:41.565Z,0
2018-10-06T00:51:50.997Z,0
2018-10-06T00:52:59.903Z,0
2018-10-06T00:54:09.322Z,0
2018-10-06T00:55:18.769Z,0
2018-10-06T00:56:27.969Z,0
2018-10-06T00:57:37.446Z,0
2018-10-06T00:58:47.142Z,0
2018-10-06T00:59:56.378Z,0
2018-10-06T01:01:05.822Z,0
2018-10-06T01:02:15.269Z,0
2018-10-06T01:03:24.698Z,0
2018-10-06T01:04:34.432Z,0
2018-10-06T01:05:43.847Z,0
2018-10-06T01:06:53.269Z,0
2018-10-06T01:08:02.446Z,0
2018-10-06T01:09:11.902Z,0
2018-10-06T01:10:21.574Z,0
2018-10-06T01:11:30.738Z,0
2018-10-06T01:12:39.893Z,0
2018-10-06T01:13:49.060Z,0
2018-10-06T01:14:57.967Z,0
2018-10-06T01:16:07.712Z,0
2018-10-06T01:17:17.416Z,0
2018-10-06T01:18:26.588Z,0
2018-10-06T01:19:35.755Z,0
2018-10-06T01:20:45.481Z,0
2018-10-06T01:21:54.913Z,0
2018-10-06T01:23:04.358Z,0
2018-10-06T01:24:14.047Z,0
2018-10-06T01:25:23.520Z,0
2018-10-06T01:26:33.223Z,0
2018-10-06T01:27:42.697Z,0
2018-10-06T01:28:51.889Z,0
2018-10-06T01:30:01.349Z,0
2018-10-06T01:31:11.292Z,0
2018-10-06T01:32:21.047Z,0
2018-10-06T01:33:29.961Z,0
2018-10-06T01:34:39.706Z,0
2018-10-06T01:35:49.127Z,0
2018-10-06T01:36:58.825Z,0
2018-10-06T01:38:08.255Z,0
2018-10-06T01:39:17.936Z,0
2018-10-06T01:40:27.809Z,0
2018-10-06T01:41:37.011Z,0
2018-10-06T01:42:46.758Z,0
2018-10-06T01:43:56.427Z,0
2018-10-06T01:45:06.125Z,0
2018-10-06T01:46:15.054Z,0
2018-10-06T01:47:24.481Z,0
2018-10-06T01:48:34.155Z,0
2018-10-06T01:49:43.635Z,0
2018-10-06T01:50:52.802Z,0
2018-10-06T01:52:02.268Z,0
2018-10-06T01:53:11.176Z,0
2018-10-06T01:54:20.595Z,0
2018-10-06T01:55:30.272Z,0
2018-10-06T01:56:39.702Z,0
2018-10-06T01:57:49.638Z,0
2018-10-06T01:59:00.065Z,0
2018-10-06T02:00:09.775Z,0
2018-10-06T02:01:18.972Z,0
2018-10-06T02:02:28.132Z,0
2018-10-06T02:03:37.558Z,0
2018-10-06T02:04:47.234Z,0
2018-10-06T02:05:56.799Z,0
2018-10-06T02:07:05.964Z,0
2018-10-06T02:08:15.407Z,0
2018-10-06T02:09:24.835Z,0
2018-10-06T02:10:34.395Z,0
2018-10-06T02:11:43.839Z,0
2018-10-06T02:12:53.016Z,0
2018-10-06T02:14:02.941Z,0
2018-10-06T02:15:12.614Z,0
2018-10-06T02:16:21.531Z,0
2018-10-06T02:17:30.940Z,0
2018-10-06T02:18:40.374Z,0
2018-10-06T02:19:50.059Z,0
2018-10-06T02:20:59.238Z,0
2018-10-06T02:22:08.921Z,0
2018-10-06T02:23:18.103Z,0
2018-10-06T02:24:27.321Z,0
2018-10-06T02:25:37.015Z,0
2018-10-06T02:26:46.173Z,0
2018-10-06T02:27:55.602Z,0
2018-10-06T02:29:05.100Z,0
2018-10-06T02:30:15.378Z,0
2018-10-06T02:31:25.380Z,0
2018-10-06T02:32:35.125Z,0
2018-10-06T02:33:44.539Z,0
2018-10-06T02:34:53.441Z,0
2018-10-06T02:36:03.383Z,0
2018-10-06T02:37:12.313Z,0
2018-10-06T02:38:22.007Z,0
2018-10-06T02:39:31.185Z,0
2018-10-06T02:40:40.863Z,0
2018-10-06T02:41:50.019Z,0
2018-10-06T02:42:59.203Z,0
2018-10-06T02:44:08.899Z,0
2018-10-06T02:45:18.313Z,0
2018-10-06T02:46:28.004Z,0
2018-10-06T02:47:37.194Z,0
2018-10-06T02:48:46.106Z,0
2018-10-06T02:49:55.534Z,0
2018-10-06T02:51:05.812Z,0
2018-10-06T02:52:15.494Z,0
2018-10-06T02:53:24.937Z,0
2018-10-06T02:54:34.658Z,0
2018-10-06T02:55:44.141Z,0
2018-10-06T02:56:53.724Z,0
2018-10-06T02:58:03.172Z,0
2018-10-06T02:59:12.347Z,0
2018-10-06T03:00:22.026Z,0
2018-10-06T03:01:31.768Z,0
2018-10-06T03:02:41.222Z,0
2018-10-06T03:03:50.651Z,0
2018-10-06T03:05:00.083Z,0
2018-10-06T03:06:09.303Z,0
2018-10-06T03:07:19.401Z,0
2018-10-06T03:08:28.876Z,0
2018-10-06T03:09:38.268Z,0
2018-10-06T03:10:47.750Z,0
2018-10-06T03:11:57.447Z,0
2018-10-06T03:13:07.431Z,0
2018-10-06T03:14:16.621Z,0
2018-10-06T03:15:25.813Z,0
2018-10-06T03:16:35.509Z,0
2018-10-06T03:17:44.697Z,0
2018-10-06T03:18:54.406Z,0
2018-10-06T03:20:03.851Z,0
2018-10-06T03:21:13.523Z,0
2018-10-06T03:22:23.472Z,0
2018-10-06T03:23:33.160Z,0
2018-10-06T03:24:42.706Z,0
2018-10-06T03:25:51.669Z,0
2018-10-06T03:27:00.850Z,0
2018-10-06T03:28:10.805Z,0
2018-10-06T03:29:20.528Z,0
2018-10-06T03:30:30.242Z,0
2018-10-06T03:31:40.322Z,0
2018-10-06T03:32:49.599Z,0
2018-10-06T03:33:59.278Z,0
2018-10-06T03:35:08.977Z,0
2018-10-06T03:36:19.136Z,0
2018-10-06T03:37:28.321Z,0
2018-10-06T03:38:37.771Z,0
2018-10-06T03:39:47.127Z,0
2018-10-06T03:40:56.301Z,0
2018-10-06T03:42:05.740Z,0
2018-10-06T03:43:15.442Z,0
2018-10-06T03:44:24.405Z,0
2018-10-06T03:45:33.320Z,0
2018-10-06T03:46:42.817Z,0
2018-10-06T03:47:52.056Z,0
2018-10-06T03:49:01.487Z,0
2018-10-06T03:50:10.931Z,0
2018-10-06T03:51:20.875Z,0
2018-10-06T03:52:30.321Z,0
2018-10-06T03:53:40.261Z,0
2018-10-06T03:54:49.943Z,0
2018-10-06T03:55:59.625Z,0
2018-10-06T03:57:09.159Z,0
2018-10-06T03:58:18.876Z,0
2018-10-06T03:59:28.312Z,0
2018-10-06T04:00:37.751Z,0
2018-10-06T04:01:47.425Z,0
2018-10-06T04:02:56.581Z,0
2018-10-06T04:04:05.756Z,0
2018-10-06T04:05:15.190Z,0
2018-10-06T04:06:25.138Z,0
2018-10-06T04:07:34.833Z,0
2018-10-06T04:08:44.345Z,0
2018-10-06T04:09:54.098Z,0
2018-10-06T04:11:03.806Z,0
2018-10-06T04:12:13.547Z,0
2018-10-06T04:13:23.508Z,0
2018-10-06T04:14:33.190Z,0
2018-10-06T04:15:42.618Z,0
2018-10-06T04:16:52.607Z,0
2018-10-06T04:18:01.790Z,0
2018-10-06T04:19:11.179Z,0
2018-10-06T04:20:21.122Z,0
2018-10-06T04:21:30.812Z,0
2018-10-06T04:22:40.503Z,0
2018-10-06T04:23:50.198Z,0
2018-10-06T04:24:59.625Z,0
2018-10-06T04:26:09.075Z,0
2018-10-06T04:27:18.503Z,0
2018-10-06T04:28:28.865Z,0
2018-10-06T04:29:38.689Z,0
2018-10-06T04:30:48.367Z,0
2018-10-06T04:31:58.058Z,0
2018-10-06T04:33:07.752Z,0
2018-10-06T04:34:17.185Z,0
2018-10-06T04:35:26.482Z,0
2018-10-06T04:36:36.156Z,0
2018-10-06T04:37:46.095Z,0
2018-10-06T04:38:56.040Z,0
2018-10-06T04:40:04.972Z,0
2018-10-06T04:41:14.917Z,0
2018-10-06T04:42:24.441Z,0
2018-10-06T04:43:34.123Z,0
2018-10-06T04:44:43.552Z,0
2018-10-06T04:45:52.722Z,0
2018-10-06T04:47:02.468Z,0
2018-10-06T04:48:11.691Z,0
2018-10-06T04:49:21.133Z,0
2018-10-06T04:50:31.188Z,0
2018-10-06T04:51:40.873Z,0
2018-10-06T04:52:50.034Z,0
2018-10-06T04:53:59.721Z,0
2018-10-06T04:55:08.783Z,0
2018-10-06T04:56:18.211Z,0
2018-10-06T04:57:27.637Z,0
2018-10-06T04:58:37.061Z,0
2018-10-06T04:59:46.727Z,0
2018-10-06T05:00:56.416Z,0
2018-10-06T05:02:05.329Z,0
2018-10-06T05:03:14.734Z,0
2018-10-06T05:04:23.941Z,0
2018-10-06T05:05:33.783Z,0
2018-10-06T05:06:43.243Z,0
2018-10-06T05:07:52.673Z,0
2018-10-06T05:09:02.103Z,0
2018-10-06T05:10:11.568Z,0
2018-10-06T05:11:21.251Z,0
2018-10-06T05:12:31.355Z,0
2018-10-06T05:13:41.724Z,0
2018-10-06T05:14:51.661Z,0
2018-10-06T05:16:01.413Z,0
2018-10-06T05:17:10.586Z,0
2018-10-06T05:18:20.123Z,0
2018-10-06T05:19:29.550Z,0
2018-10-06T05:20:38.715Z,0
2018-10-06T05:21:48.409Z,0
2018-10-06T05:22:57.596Z,0
2018-10-06T05:24:06.788Z,0
2018-10-06T05:25:15.722Z,0
2018-10-06T05:26:24.893Z,0
2018-10-06T05:27:34.330Z,0
2018-10-06T05:28:43.504Z,0
2018-10-06T05:29:52.679Z,0
2018-10-06T05:31:02.349Z,0
2018-10-06T05:32:11.797Z,0
2018-10-06T05:33:21.005Z,0
2018-10-06T05:34:30.688Z,0
2018-10-06T05:35:40.099Z,0
2018-10-06T05:36:49.281Z,0
2018-10-06T05:37:58.712Z,0
2018-10-06T05:39:07.888Z,0
2018-10-06T05:40:17.604Z,0
2018-10-06T05:41:27.283Z,0
2018-10-06T05:42:36.962Z,0
2018-10-06T05:43:46.392Z,0
2018-10-06T05:44:56.096Z,0
2018-10-06T05:46:06.207Z,0
2018-10-06T05:47:15.673Z,0
2018-10-06T05:48:24.642Z,0
2018-10-06T05:49:34.071Z,0
2018-10-06T05:50:44.180Z,0
2018-10-06T05:51:53.357Z,0
2018-10-06T05:53:02.522Z,0
2018-10-06T05:54:11.951Z,0
2018-10-06T05:55:21.643Z,0
2018-10-06T05:56:31.435Z,0
2018-10-06T05:57:40.889Z,0
2018-10-06T05:58:50.849Z,0
2018-10-06T06:00:00.354Z,0
2018-10-06T06:01:10.045Z,0
2018-10-06T06:02:19.229Z,0
2018-10-06T06:03:28.912Z,0
2018-10-06T06:04:38.355Z,0
2018-10-06T06:05:47.537Z,0
2018-10-06T06:06:56.989Z,0
2018-10-06T06:08:06.560Z,0
2018-10-06T06:09:16.037Z,0
2018-10-06T06:10:25.458Z,0
2018-10-06T06:11:34.653Z,0
2018-10-06T06:12:44.364Z,0
2018-10-06T06:13:54.065Z,0
2018-10-06T06:15:04.066Z,0
2018-10-06T06:16:14.023Z,0
2018-10-06T06:17:23.726Z,0
2018-10-06T06:18:32.748Z,0
2018-10-06T06:19:42.207Z,4
2018-10-06T06:20:51.957Z,4
2018-10-06T06:22:01.394Z,4
2018-10-06T06:23:11.333Z,4
2018-10-06T06:24:20.508Z,4
2018-10-06T06:25:30.508Z,4
2018-10-06T06:26:40.010Z,4
2018-10-06T06:27:49.769Z,4
2018-10-06T06:28:59.552Z,4
2018-10-06T06:30:09.033Z,4
2018-10-06T06:31:18.938Z,4
2018-10-06T06:32:28.568Z,4
2018-10-06T06:33:37.985Z,4
2018-10-06T06:34:47.677Z,4
2018-10-06T06:35:57.781Z,4
2018-10-06T06:37:07.762Z,4
2018-10-06T06:38:17.915Z,4
2018-10-06T06:39:27.254Z,4
2018-10-06T06:40:36.708Z,4
2018-10-06T06:41:46.130Z,4
2018-10-06T06:42:55.568Z,0
2018-10-06T06:44:05.066Z,0
2018-10-06T06:45:15.369Z,0
2018-10-06T06:46:25.354Z,0
2018-10-06T06:47:34.798Z,0
2018-10-06T06:48:44.536Z,0
2018-10-06T06:49:53.702Z,0
2018-10-06T06:51:03.171Z,0
2018-10-06T06:52:12.096Z,0
2018-10-06T06:53:21.016Z,0
2018-10-06T06:54:30.444Z,4
2018-10-06T06:55:39.867Z,0
2018-10-06T06:56:48.773Z,4
2018-10-06T06:57:58.474Z,0
2018-10-06T06:59:08.192Z,4
2018-10-06T07:00:17.374Z,4
2018-10-06T07:01:27.081Z,4
2018-10-06T07:02:36.538Z,4
2018-10-06T07:03:46.232Z,4
2018-10-06T07:04:55.722Z,4
2018-10-06T07:06:04.890Z,4
2018-10-06T07:07:14.569Z,4
2018-10-06T07:08:24.254Z,4
2018-10-06T07:09:34.202Z,4
2018-10-06T07:10:43.901Z,4
2018-10-06T07:11:53.326Z,4
2018-10-06T07:13:02.745Z,4
2018-10-06T07:14:12.287Z,4
2018-10-06T07:15:22.042Z,4
2018-10-06T07:16:32.198Z,4
2018-10-06T07:17:42.125Z,4
2018-10-06T07:18:51.826Z,4
2018-10-06T07:20:01.557Z,4
2018-10-06T07:21:10.991Z,4
2018-10-06T07:22:20.938Z,4
2018-10-06T07:23:30.273Z,4
2018-10-06T07:24:39.885Z,8
2018-10-06T07:25:49.326Z,8
2018-10-06T07:26:58.491Z,8
2018-10-06T07:28:07.919Z,4
2018-10-06T07:29:17.694Z,8
2018-10-06T07:30:27.395Z,8
2018-10-06T07:31:37.377Z,4
2018-10-06T07:32:47.067Z,8
2018-10-06T07:33:56.492Z,8
2018-10-06T07:35:05.678Z,8
2018-10-06T07:36:15.402Z,8
2018-10-06T07:37:24.572Z,8
2018-10-06T07:38:34.275Z,8
2018-10-06T07:39:44.425Z,12
2018-10-06T07:40:53.162Z,8
2018-10-06T07:42:02.593Z,8
2018-10-06T07:43:12.041Z,12
2018-10-06T07:44:21.208Z,8
2018-10-06T07:45:30.909Z,12
2018-10-06T07:46:39.562Z,8
2018-10-06T07:47:48.978Z,8
2018-10-06T07:48:58.403Z,12
2018-10-06T07:50:08.386Z,8
2018-10-06T07:51:17.813Z,8
2018-10-06T07:52:27.511Z,12
2018-10-06T07:53:37.199Z,12
2018-10-06T07:54:46.642Z,12
2018-10-06T07:55:56.317Z,8
2018-10-06T07:57:06.325Z,12
2018-10-06T07:58:16.373Z,12
2018-10-06T07:59:26.837Z,12
2018-10-06T08:00:36.307Z,16
2018-10-06T08:01:45.905Z,12
2018-10-06T08:02:55.087Z,16
2018-10-06T08:04:04.840Z,16
2018-10-06T08:05:14.273Z,16
2018-10-06T08:06:24.107Z,16
2018-10-06T08:07:33.387Z,12
2018-10-06T08:08:42.879Z,16
2018-10-06T08:09:52.073Z,12
2018-10-06T08:11:01.517Z,12
2018-10-06T08:12:11.214Z,16
2018-10-06T08:13:20.631Z,16
2018-10-06T08:14:30.124Z,12
2018-10-06T08:15:39.390Z,16
2018-10-06T08:16:48.590Z,12
2018-10-06T08:17:57.787Z,12
2018-10-06T08:19:07.819Z,12
2018-10-06T08:20:17.277Z,12
2018-10-06T08:21:27.277Z,12
2018-10-06T08:22:36.262Z,16
2018-10-06T08:23:45.931Z,12
2018-10-06T08:24:55.666Z,12
2018-10-06T08:26:05.376Z,12
2018-10-06T08:27:14.873Z,12
2018-10-06T08:28:24.573Z,8
2018-10-06T08:29:34.078Z,8
2018-10-06T08:30:44.079Z,12
2018-10-06T08:31:53.545Z,8
2018-10-06T08:33:03.274Z,12
2018-10-06T08:34:12.729Z,12
2018-10-06T08:35:21.381Z,12
2018-10-06T08:36:30.552Z,12
2018-10-06T08:37:39.988Z,16
2018-10-06T08:38:49.457Z,12
2018-10-06T08:39:59.153Z,16
2018-10-06T08:41:08.330Z,16
2018-10-06T08:42:17.510Z,16
2018-10-06T08:43:27.213Z,16
2018-10-06T08:44:36.887Z,20
2018-10-06T08:45:46.631Z,20
2018-10-06T08:46:55.819Z,16
2018-10-06T08:48:05.008Z,16
2018-10-06T08:49:14.693Z,20
2018-10-06T08:50:25.157Z,20
2018-10-06T08:51:34.615Z,20
2018-10-06T08:52:44.373Z,20
2018-10-06T08:53:53.535Z,20
2018-10-06T08:55:03.396Z,20
2018-10-06T08:56:13.392Z,20
2018-10-06T08:57:23.745Z,20
2018-10-06T08:58:33.702Z,20
2018-10-06T08:59:43.838Z,24
2018-10-06T09:00:53.051Z,20
2018-10-06T09:02:02.306Z,24
2018-10-06T09:03:11.476Z,24
2018-10-06T09:04:21.222Z,24
2018-10-06T09:05:30.593Z,20
2018-10-06T09:06:39.500Z,20
2018-10-06T09:07:48.887Z,24
2018-10-06T09:08:58.843Z,24
2018-10-06T09:10:08.349Z,28
2018-10-06T09:11:17.802Z,24
2018-10-06T09:12:27.747Z,20
2018-10-06T09:13:37.436Z,28
2018-10-06T09:14:46.810Z,24
2018-10-06T09:15:56.497Z,24
2018-10-06T09:17:05.701Z,24
2018-10-06T09:18:15.155Z,28
2018-10-06T09:19:25.106Z,28
2018-10-06T09:20:34.020Z,24
2018-10-06T09:21:43.456Z,28
2018-10-06T09:22:52.683Z,24
2018-10-06T09:24:02.622Z,28
2018-10-06T09:25:12.267Z,24
2018-10-06T09:26:21.720Z,28
2018-10-06T09:27:31.540Z,28
2018-10-06T09:28:40.975Z,28
2018-10-06T09:29:50.425Z,28
2018-10-06T09:31:00.387Z,28
2018-10-06T09:32:09.718Z,24
2018-10-06T09:33:18.893Z,28
2018-10-06T09:34:28.070Z,24
2018-10-06T09:35:38.040Z,28
2018-10-06T09:36:47.476Z,32
2018-10-06T09:37:57.525Z,28
2018-10-06T09:39:07.231Z,32
2018-10-06T09:40:16.415Z,28
2018-10-06T09:41:25.591Z,28
2018-10-06T09:42:36.076Z,28
2018-10-06T09:43:45.867Z,28
2018-10-06T09:44:55.532Z,20
2018-10-06T09:46:05.239Z,32
2018-10-06T09:47:14.760Z,24
2018-10-06T09:48:23.963Z,28
2018-10-06T09:49:33.475Z,28
2018-10-06T09:50:43.169Z,28
2018-10-06T09:51:52.348Z,24
2018-10-06T09:53:01.519Z,24
2018-10-06T09:54:11.209Z,28
2018-10-06T09:55:20.916Z,24
2018-10-06T09:56:30.338Z,24
2018-10-06T09:57:39.996Z,28
2018-10-06T09:58:49.286Z,28
2018-10-06T09:59:58.771Z,24
2018-10-06T10:01:08.463Z,24
2018-10-06T10:02:18.063Z,24
2018-10-06T10:03:27.258Z,24
2018-10-06T10:04:36.695Z,24
2018-10-06T10:05:46.716Z,20
2018-10-06T10:06:55.648Z,24
2018-10-06T10:08:05.585Z,28
2018-10-06T10:09:15.031Z,24
2018-10-06T10:10:24.257Z,24
2018-10-06T10:11:33.434Z,28
2018-10-06T10:12:43.301Z,24
2018-10-06T10:13:52.533Z,24
2018-10-06T10:15:02.006Z,24
2018-10-06T10:16:11.459Z,24
2018-10-06T10:17:20.820Z,24
2018-10-06T10:18:31.380Z,24
2018-10-06T10:19:41.015Z,24
2018-10-06T10:20:50.445Z,24
2018-10-06T10:22:00.315Z,20
2018-10-06T10:23:10.181Z,24
2018-10-06T10:24:19.356Z,28
2018-10-06T10:25:28.519Z,24
2018-10-06T10:26:37.974Z,24
2018-10-06T10:27:47.401Z,20
2018-10-06T10:28:57.176Z,20
2018-10-06T10:30:06.437Z,24
2018-10-06T10:31:15.635Z,20
2018-10-06T10:32:25.058Z,20
2018-10-06T10:33:33.969Z,20
2018-10-06T10:34:43.295Z,16
2018-10-06T10:35:53.265Z,24
2018-10-06T10:37:02.254Z,20
2018-10-06T10:38:11.694Z,20
2018-10-06T10:39:21.035Z,24
2018-10-06T10:40:30.745Z,20
2018-10-06T10:41:40.255Z,20
2018-10-06T10:42:49.688Z,24
2018-10-06T10:43:58.970Z,20
2018-10-06T10:45:08.433Z,20
2018-10-06T10:46:18.264Z,24
2018-10-06T10:47:27.741Z,24
2018-10-06T10:48:37.455Z,20
2018-10-06T10:49:46.919Z,20
2018-10-06T10:50:56.911Z,24
2018-10-06T10:52:06.372Z,24
2018-10-06T10:53:16.099Z,24
2018-10-06T10:54:25.323Z,24
2018-10-06T10:55:35.418Z,24
2018-10-06T10:56:45.256Z,24
2018-10-06T10:57:54.967Z,24
2018-10-06T10:59:04.183Z,20
2018-10-06T11:00:13.689Z,24
2018-10-06T11:01:23.658Z,24
2018-10-06T11:02:33.338Z,24
2018-10-06T11:03:43.415Z,20
2018-10-06T11:04:53.141Z,20
2018-10-06T11:06:02.883Z,20
2018-10-06T11:07:12.045Z,24
2018-10-06T11:08:21.731Z,20
2018-10-06T11:09:31.154Z,20
2018-10-06T11:10:40.574Z,20
2018-10-06T11:11:50.031Z,20
2018-10-06T11:12:59.476Z,20
2018-10-06T11:14:08.900Z,20
2018-10-06T11:15:18.316Z,20
2018-10-06T11:16:28.063Z,20
2018-10-06T11:17:38.066Z,20
2018-10-06T11:18:47.229Z,16
2018-10-06T11:19:56.662Z,20
2018-10-06T11:21:06.353Z,20
2018-10-06T11:22:15.817Z,16
2018-10-06T11:23:25.246Z,20
2018-10-06T11:24:34.671Z,16
2018-10-06T11:25:44.354Z,16
2018-10-06T11:26:54.369Z,20
2018-10-06T11:28:04.333Z,16
2018-10-06T11:29:13.512Z,16
2018-10-06T11:30:23.212Z,16
2018-10-06T11:31:32.916Z,20
2018-10-06T11:32:42.375Z,16
2018-10-06T11:33:52.092Z,16
2018-10-06T11:35:01.514Z,16
2018-10-06T11:36:11.210Z,16
2018-10-06T11:37:21.110Z,16
2018-10-06T11:38:30.716Z,20
2018-10-06T11:39:40.123Z,16
2018-10-06T11:40:49.040Z,16
2018-10-06T11:41:58.498Z,24
2018-10-06T11:43:07.671Z,24
2018-10-06T11:44:16.860Z,24
2018-10-06T11:45:26.545Z,24
2018-10-06T11:46:35.723Z,20
2018-10-06T11:47:45.439Z,24
2018-10-06T11:48:55.137Z,24
2018-10-06T11:50:05.752Z,20
2018-10-06T11:51:15.561Z,24
2018-10-06T11:52:25.551Z,28
2018-10-06T11:53:34.842Z,24
2018-10-06T11:54:43.761Z,24
2018-10-06T11:55:52.935Z,24
2018-10-06T11:57:02.370Z,24
2018-10-06T11:58:11.822Z,28
2018-10-06T11:59:21.550Z,28
2018-10-06T12:00:30.933Z,28
2018-10-06T12:01:40.646Z,28
2018-10-06T12:02:49.834Z,32
2018-10-06T12:03:59.521Z,28
2018-10-06T12:05:09.282Z,28
2018-10-06T12:06:18.998Z,28
2018-10-06T12:07:28.222Z,28
2018-10-06T12:08:38.182Z,32
2018-10-06T12:09:47.113Z,24
2018-10-06T12:10:56.629Z,32
2018-10-06T12:12:06.149Z,24
2018-10-06T12:13:15.835Z,24
2018-10-06T12:14:25.309Z,24
2018-10-06T12:15:35.002Z,28
2018-10-06T12:16:44.421Z,24
2018-10-06T12:17:53.867Z,24
2018-10-06T12:19:03.256Z,24
2018-10-06T12:20:12.989Z,28
2018-10-06T12:21:22.404Z,24
2018-10-06T12:22:32.090Z,16
2018-10-06T12:23:41.763Z,20
2018-10-06T12:24:51.501Z,20
2018-10-06T12:26:01.068Z,20
2018-10-06T12:27:10.815Z,24
2018-10-06T12:28:19.983Z,12
2018-10-06T12:29:29.161Z,24
2018-10-06T12:30:38.610Z,20
2018-10-06T12:31:48.721Z,20
2018-10-06T12:32:58.424Z,16
2018-10-06T12:34:07.890Z,20
2018-10-06T12:35:18.599Z,20
2018-10-06T12:36:28.416Z,12
2018-10-06T12:37:37.687Z,20
2018-10-06T12:38:46.868Z,24
2018-10-06T12:39:56.295Z,24
2018-10-06T12:41:05.456Z,24
2018-10-06T12:42:15.447Z,12
2018-10-06T12:43:25.347Z,28
2018-10-06T12:44:34.513Z,28
2018-10-06T12:45:44.194Z,28
2018-10-06T12:46:53.892Z,28
2018-10-06T12:48:03.377Z,28
2018-10-06T12:49:12.826Z,12
2018-10-06T12:50:22.241Z,12
2018-10-06T12:51:31.884Z,28
2018-10-06T12:52:41.353Z,24
2018-10-06T12:53:50.784Z,24
2018-10-06T12:54:59.704Z,28
2018-10-06T12:56:08.863Z,28
2018-10-06T12:57:18.545Z,28
2018-10-06T12:58:27.983Z,28
2018-10-06T12:59:37.422Z,32
2018-10-06T13:00:47.421Z,32
2018-10-06T13:01:57.125Z,32
2018-10-06T13:03:06.284Z,36
2018-10-06T13:04:15.480Z,36
2018-10-06T13:05:24.913Z,40
2018-10-06T13:06:34.595Z,48
2018-10-06T13:07:44.015Z,52
2018-10-06T13:08:53.182Z,52
2018-10-06T13:10:02.609Z,52
2018-10-06T13:11:12.305Z,56
2018-10-06T13:12:22.259Z,52
2018-10-06T13:13:31.689Z,52
2018-10-06T13:14:41.641Z,56
2018-10-06T13:15:50.812Z,60
2018-10-06T13:17:00.756Z,56
2018-10-06T13:18:10.184Z,60
2018-10-06T13:19:19.342Z,60
2018-10-06T13:20:29.057Z,60
2018-10-06T13:21:38.734Z,64
2018-10-06T13:22:48.184Z,64
2018-10-06T13:23:57.848Z,64
2018-10-06T13:25:07.281Z,60
2018-10-06T13:26:16.969Z,60
2018-10-06T13:27:26.387Z,60
2018-10-06T13:28:35.556Z,60
2018-10-06T13:29:44.978Z,60
2018-10-06T13:30:54.413Z,60
2018-10-06T13:32:04.264Z,64
2018-10-06T13:33:13.532Z,64
2018-10-06T13:34:22.731Z,64
2018-10-06T13:35:32.157Z,64
2018-10-06T13:36:41.077Z,56
2018-10-06T13:37:50.500Z,64
2018-10-06T13:38:59.917Z,64
2018-10-06T13:40:08.575Z,60
2018-10-06T13:41:18.024Z,60
2018-10-06T13:42:27.708Z,60
2018-10-06T13:43:37.403Z,60
2018-10-06T13:44:46.880Z,64
2018-10-06T13:45:56.357Z,56
2018-10-06T13:47:05.787Z,52
2018-10-06T13:48:14.951Z,52
2018-10-06T13:49:24.368Z,56
2018-10-06T13:50:34.346Z,12
2018-10-06T13:51:43.772Z,48
2018-10-06T13:52:52.938Z,48
2018-10-06T13:54:02.640Z,44
2018-10-06T13:55:11.817Z,44
2018-10-06T13:56:21.508Z,40
2018-10-06T13:57:31.322Z,40
2018-10-06T13:58:41.306Z,32
2018-10-06T13:59:50.856Z,28
2018-10-06T14:01:00.537Z,20
2018-10-06T14:02:09.970Z,20
2018-10-06T14:03:19.678Z,12
2018-10-06T14:04:29.463Z,8
2018-10-06T14:05:39.167Z,8
2018-10-06T14:06:48.614Z,8
2018-10-06T14:07:58.048Z,8
2018-10-06T14:09:06.965Z,8
2018-10-06T14:10:16.128Z,8
2018-10-06T14:11:25.811Z,8
2018-10-06T14:12:35.246Z,8
2018-10-06T14:13:44.719Z,8
2018-10-06T14:14:54.448Z,8
2018-10-06T14:16:03.881Z,8
2018-10-06T14:17:13.304Z,8
2018-10-06T14:18:21.962Z,8
2018-10-06T14:19:31.411Z,8
2018-10-06T14:20:40.840Z,4
2018-10-06T14:21:50.260Z,8
2018-10-06T14:22:59.690Z,8
2018-10-06T14:24:08.911Z,8
2018-10-06T14:25:18.078Z,4
2018-10-06T14:26:28.049Z,8
2018-10-06T14:27:37.381Z,8
2018-10-06T14:28:46.823Z,8
2018-10-06T14:29:56.791Z,8
2018-10-06T14:31:06.220Z,4
2018-10-06T14:32:15.646Z,4
2018-10-06T14:33:25.339Z,4
2018-10-06T14:34:34.257Z,4
2018-10-06T14:35:44.198Z,4
2018-10-06T14:36:53.683Z,4
2018-10-06T14:38:03.376Z,8
2018-10-06T14:39:12.299Z,4
2018-10-06T14:40:21.744Z,8
2018-10-06T14:41:30.923Z,4
2018-10-06T14:42:40.107Z,4
2018-10-06T14:43:49.560Z,4
2018-10-06T14:44:58.737Z,8
2018-10-06T14:46:08.432Z,8
2018-10-06T14:47:17.671Z,8
2018-10-06T14:48:27.679Z,4
2018-10-06T14:49:37.374Z,8
2018-10-06T14:50:46.820Z,8
2018-10-06T14:51:56.757Z,8
2018-10-06T14:53:06.224Z,8
2018-10-06T14:54:15.651Z,8
2018-10-06T14:55:25.613Z,8
2018-10-06T14:56:35.041Z,8
2018-10-06T14:57:43.976Z,8
2018-10-06T14:58:53.177Z,8
2018-10-06T15:00:02.617Z,8
2018-10-06T15:01:12.611Z,4
2018-10-06T15:02:22.042Z,4
2018-10-06T15:03:31.584Z,4
2018-10-06T15:04:41.381Z,4
2018-10-06T15:05:50.857Z,4
2018-10-06T15:07:00.526Z,4
2018-10-06T15:08:09.713Z,4
2018-10-06T15:09:18.645Z,4
2018-10-06T15:10:28.032Z,4
2018-10-06T15:11:37.464Z,4
2018-10-06T15:12:46.377Z,4
2018-10-06T15:13:56.088Z,8
2018-10-06T15:15:05.798Z,4
2018-10-06T15:16:14.788Z,4
2018-10-06T15:17:24.480Z,8
2018-10-06T15:18:33.635Z,8
2018-10-06T15:19:43.122Z,4
2018-10-06T15:20:52.294Z,4
2018-10-06T15:22:01.487Z,4
2018-10-06T15:23:10.649Z,4
2018-10-06T15:24:20.099Z,4
2018-10-06T15:25:29.554Z,4
2018-10-06T15:26:39.488Z,4
2018-10-06T15:27:49.181Z,4
2018-10-06T15:28:58.632Z,4
2018-10-06T15:30:08.345Z,4
2018-10-06T15:31:17.834Z,4
2018-10-06T15:32:26.752Z,4
2018-10-06T15:33:35.729Z,4
2018-10-06T15:34:45.444Z,4
2018-10-06T15:35:55.150Z,4
2018-10-06T15:37:04.587Z,4
2018-10-06T15:38:13.523Z,4
2018-10-06T15:39:23.052Z,4
2018-10-06T15:40:33.041Z,4
2018-10-06T15:41:42.743Z,0
2018-10-06T15:42:52.088Z,0
2018-10-06T15:44:01.540Z,4
2018-10-06T15:45:11.270Z,4
2018-10-06T15:46:20.450Z,4
2018-10-06T15:47:29.619Z,4
2018-10-06T15:48:38.538Z,4
2018-10-06T15:49:48.232Z,4
2018-10-06T15:50:58.302Z,4
2018-10-06T15:52:07.558Z,4
2018-10-06T15:53:17.250Z,4
2018-10-06T15:54:26.666Z,4
2018-10-06T15:55:35.831Z,4
2018-10-06T15:56:45.922Z,4
2018-10-06T15:57:55.803Z,0
2018-10-06T15:59:04.991Z,4
2018-10-06T16:00:14.251Z,0
2018-10-06T16:01:23.437Z,4
2018-10-06T16:02:33.350Z,4
2018-10-06T16:03:42.809Z,4
2018-10-06T16:04:52.505Z,4
2018-10-06T16:06:02.205Z,4
2018-10-06T16:07:11.378Z,4
2018-10-06T16:08:20.806Z,4
2018-10-06T16:09:29.987Z,4
2018-10-06T16:10:38.896Z,4
2018-10-06T16:11:48.840Z,4
2018-10-06T16:12:58.032Z,4
2018-10-06T16:14:07.453Z,4
2018-10-06T16:15:17.138Z,4
2018-10-06T16:16:26.325Z,4
2018-10-06T16:17:35.518Z,4
2018-10-06T16:18:45.471Z,4
2018-10-06T16:19:54.923Z,0
2018-10-06T16:21:04.364Z,0
2018-10-06T16:22:14.315Z,0
2018-10-06T16:23:23.752Z,0
2018-10-06T16:24:32.942Z,0
2018-10-06T16:25:42.118Z,0
2018-10-06T16:26:51.587Z,0
2018-10-06T16:28:01.033Z,0
2018-10-06T16:29:10.469Z,4
2018-10-06T16:30:19.899Z,4
2018-10-06T16:31:29.592Z,4
2018-10-06T16:32:39.265Z,4
2018-10-06T16:33:49.057Z,4
2018-10-06T16:34:58.290Z,4
2018-10-06T16:36:07.729Z,4
2018-10-06T16:37:17.157Z,0
2018-10-06T16:38:26.626Z,0
2018-10-06T16:39:36.056Z,0
2018-10-06T16:40:45.726Z,0
2018-10-06T16:41:55.148Z,0
2018-10-06T16:43:04.567Z,0
2018-10-06T16:44:13.993Z,0
2018-10-06T16:45:23.417Z,0
2018-10-06T16:46:32.576Z,0
2018-10-06T16:47:42.006Z,0
2018-10-06T16:48:51.459Z,0
2018-10-06T16:50:00.891Z,0
2018-10-06T16:51:10.390Z,0
2018-10-06T16:52:19.572Z,0
2018-10-06T16:53:28.743Z,0
2018-10-06T16:54:38.467Z,0